createdAt,value
2018-07-04T00:02:01.837Z,3.30
2018-07-04T00:07:22.519Z,3.10
2018-07-04T00:12:43.039Z,2.60
2018-07-04T00:18:03.551Z,2.90
2018-07-04T00:23:23.875Z,2.43
2018-07-04T00:28:44.138Z,2.47
2018-07-04T00:34:04.489Z,3.13
2018-07-04T00:39:24.900Z,3.00
2018-07-04T00:44:45.084Z,3.00
2018-07-04T00:50:06.021Z,2.80
2018-07-04T00:55:26.540Z,2.90
2018-07-04T01:00:47.059Z,2.60
2018-07-04T01:06:07.680Z,2.60
2018-07-04T01:11:28.083Z,3.30
2018-07-04T01:16:48.519Z,2.60
2018-07-04T01:22:08.799Z,2.27
2018-07-04T01:27:29.125Z,2.87
2018-07-04T01:32:49.472Z,3.30
2018-07-04T01:38:09.711Z,3.27
2018-07-04T01:43:30.091Z,3.60
2018-07-04T01:48:50.656Z,3.40
2018-07-04T01:54:11.295Z,4.33
2018-07-04T01:59:31.440Z,3.20
2018-07-04T02:04:52.128Z,3.40
2018-07-04T02:10:12.293Z,3.50
2018-07-04T02:15:32.573Z,3.30
2018-07-04T02:20:53.228Z,3.53
2018-07-04T02:26:13.648Z,3.53
2018-07-04T02:31:33.947Z,3.33
2018-07-04T02:36:54.568Z,3.30
2018-07-04T02:42:14.643Z,3.70
2018-07-04T02:47:34.897Z,3.67
2018-07-04T02:52:55.285Z,3.50
2018-07-04T02:58:15.665Z,3.37
2018-07-04T03:03:35.827Z,3.60
2018-07-04T03:08:56.130Z,3.80
2018-07-04T03:14:16.650Z,3.90
2018-07-04T03:19:37.064Z,4.47
2018-07-04T03:24:57.318Z,4.57
2018-07-04T03:30:17.683Z,6.30
2018-07-04T03:35:38.179Z,6.97
2018-07-04T03:40:58.603Z,7.47
2018-07-04T03:46:19.009Z,7.50
2018-07-04T03:51:39.511Z,6.87
2018-07-04T03:57:00.069Z,5.93
2018-07-04T04:02:20.660Z,6.70
2018-07-04T04:07:41.007Z,6.03
2018-07-04T04:13:01.456Z,7.17
2018-07-04T04:18:21.684Z,6.43
2018-07-04T04:23:42.088Z,7.07
2018-07-04T04:29:02.393Z,6.53
2018-07-04T04:34:22.589Z,5.43
2018-07-04T04:39:43.141Z,7.50
2018-07-04T04:45:03.347Z,6.57
2018-07-04T04:50:23.841Z,6.47
2018-07-04T04:55:44.263Z,6.30
2018-07-04T05:01:04.287Z,7.33
2018-07-04T05:06:24.697Z,6.33
2018-07-04T05:11:45.180Z,6.33
2018-07-04T05:17:05.702Z,7.50
2018-07-04T05:22:25.977Z,7.63
2018-07-04T05:27:46.635Z,7.13
2018-07-04T05:33:07.040Z,6.77
2018-07-04T05:38:27.503Z,6.57
2018-07-04T05:43:48.006Z,5.43
2018-07-04T05:49:08.602Z,6.23
2018-07-04T05:54:28.886Z,6.63
2018-07-04T05:59:49.221Z,6.23
2018-07-04T06:05:09.612Z,6.53
2018-07-04T06:10:29.819Z,6.30
2018-07-04T06:15:50.127Z,5.53
2018-07-04T06:21:10.519Z,5.40
2018-07-04T06:26:31.063Z,5.40
2018-07-04T06:31:51.879Z,5.37
2018-07-04T06:37:12.422Z,5.33
2018-07-04T06:42:13.889Z,5.70
2018-07-04T06:47:15.561Z,5.93
2018-07-04T06:52:17.167Z,5.67
2018-07-04T06:57:19.519Z,5.60
2018-07-04T07:02:21.164Z,6.03
2018-07-04T07:07:41.584Z,4.23
2018-07-04T07:13:02.101Z,4.80
2018-07-04T07:18:22.408Z,4.20
2018-07-04T07:23:42.727Z,4.30
2018-07-04T07:29:03.327Z,3.83
2018-07-04T07:34:23.805Z,4.43
2018-07-04T07:39:44.152Z,4.60
2018-07-04T07:45:04.399Z,4.90
2018-07-04T07:50:24.756Z,4.40
2018-07-04T07:55:45.112Z,4.13
2018-07-04T08:01:05.307Z,4.40
2018-07-04T08:06:25.691Z,3.60
2018-07-04T08:11:46.098Z,4.47
2018-07-04T08:17:06.420Z,4.17
2018-07-04T08:22:26.847Z,3.63
2018-07-04T08:27:47.195Z,4.40
2018-07-04T08:33:07.571Z,3.80
2018-07-04T08:38:27.655Z,5.20
2018-07-04T08:43:48.055Z,3.77
2018-07-04T08:49:08.373Z,5.37
2018-07-04T08:54:28.691Z,4.60
2018-07-04T08:59:48.871Z,5.00
2018-07-04T09:05:09.296Z,5.50
2018-07-04T09:10:29.512Z,5.20
2018-07-04T09:15:49.756Z,5.33
2018-07-04T09:21:10.255Z,5.70
2018-07-04T09:26:31.123Z,5.17
2018-07-04T09:31:51.467Z,5.30
2018-07-04T09:37:11.714Z,4.33
2018-07-04T09:42:32.102Z,4.90
2018-07-04T09:47:52.297Z,5.30
2018-07-04T09:53:12.733Z,4.13
2018-07-04T09:58:33.512Z,4.03
2018-07-04T10:03:54.841Z,3.87
2018-07-04T10:09:15.200Z,4.23
2018-07-04T10:14:35.392Z,4.00
2018-07-04T10:19:55.704Z,4.50
2018-07-04T10:25:16.156Z,3.70
2018-07-04T10:30:36.495Z,4.23
2018-07-04T10:35:56.738Z,4.23
2018-07-04T10:41:17.079Z,3.50
2018-07-04T10:46:37.604Z,3.80
2018-07-04T10:51:58.705Z,3.73
2018-07-04T10:57:18.976Z,3.87
2018-07-04T11:02:39.336Z,4.70
2018-07-04T11:07:59.784Z,4.27
2018-07-04T11:13:20.111Z,4.27
2018-07-04T11:18:40.507Z,4.67
2018-07-04T11:24:00.815Z,4.73
2018-07-04T11:29:20.870Z,4.97
2018-07-04T11:34:41.197Z,3.70
2018-07-04T11:40:01.696Z,3.50
2018-07-04T11:45:21.996Z,4.07
2018-07-04T11:50:23.485Z,4.10
2018-07-04T11:55:25.068Z,4.20
2018-07-04T12:00:26.512Z,4.30
2018-07-04T12:05:46.812Z,4.80
2018-07-04T12:10:48.993Z,4.03
2018-07-04T12:15:51.044Z,4.60
2018-07-04T12:20:52.717Z,4.30
2018-07-04T12:25:54.145Z,5.13
2018-07-04T12:30:55.593Z,4.43
2018-07-04T12:35:57.109Z,3.87
2018-07-04T12:40:58.552Z,4.30
2018-07-04T12:46:00.051Z,4.97
2018-07-04T12:51:01.584Z,3.70
2018-07-04T12:56:21.953Z,4.60
2018-07-04T13:01:42.147Z,4.47
2018-07-04T13:07:02.632Z,3.90
2018-07-04T13:12:22.869Z,5.10
2018-07-04T13:17:43.269Z,4.90
2018-07-04T13:23:03.495Z,5.03
2018-07-04T13:28:23.984Z,4.20
2018-07-04T13:33:44.277Z,4.80
2018-07-04T13:39:05.151Z,4.13
2018-07-04T13:44:25.594Z,4.23
2018-07-04T13:49:46.118Z,4.03
2018-07-04T13:55:06.484Z,5.07
2018-07-04T14:00:26.792Z,6.00
2018-07-04T14:05:47.207Z,4.13
2018-07-04T14:11:07.981Z,5.03
2018-07-04T14:16:28.357Z,5.30
2018-07-04T14:21:43.122Z,5.67
2018-07-04T14:27:03.477Z,6.20
2018-07-04T14:32:23.964Z,5.47
2018-07-04T14:37:44.261Z,5.50
2018-07-04T14:43:04.554Z,5.83
2018-07-04T14:48:25.075Z,6.13
2018-07-04T14:53:45.495Z,5.97
2018-07-04T14:59:06.004Z,5.70
2018-07-04T15:04:26.659Z,12.50
2018-07-04T15:09:47.069Z,8.70
2018-07-04T15:15:07.753Z,9.03
2018-07-04T15:20:28.364Z,8.80
2018-07-04T15:25:48.625Z,9.53
2018-07-04T15:31:09.128Z,13.00
2018-07-04T15:36:29.603Z,7.50
2018-07-04T15:41:49.899Z,9.97
2018-07-04T15:47:10.224Z,6.50
2018-07-04T15:52:31.223Z,5.83
2018-07-04T15:57:51.817Z,6.40
2018-07-04T16:03:12.191Z,6.90
2018-07-04T16:08:33.096Z,6.60
2018-07-04T16:13:53.508Z,6.47
2018-07-04T16:19:13.791Z,6.83
2018-07-04T16:24:34.100Z,6.37
2018-07-04T16:29:54.359Z,6.90
2018-07-04T16:35:14.479Z,6.73
2018-07-04T16:40:34.756Z,6.43
2018-07-04T16:45:55.240Z,5.60
2018-07-04T16:51:15.780Z,5.13
2018-07-04T16:56:36.029Z,6.13
2018-07-04T17:01:56.192Z,5.80
2018-07-04T17:07:16.450Z,5.23
2018-07-04T17:12:37.011Z,5.30
2018-07-04T17:17:57.433Z,5.20
2018-07-04T17:23:17.710Z,5.80
2018-07-04T17:28:38.152Z,6.40
2018-07-04T17:33:58.425Z,6.60
2018-07-04T17:39:18.781Z,4.90
2018-07-04T17:44:39.045Z,5.23
2018-07-04T17:49:59.305Z,4.47
2018-07-04T17:55:19.516Z,4.93
2018-07-04T18:00:40.000Z,5.53
2018-07-04T18:06:00.632Z,5.20
2018-07-04T18:11:21.024Z,4.27
2018-07-04T18:16:41.607Z,4.20
2018-07-04T18:22:02.196Z,4.10
2018-07-04T18:27:22.600Z,4.13
2018-07-04T18:32:42.935Z,4.23
2018-07-04T18:38:03.309Z,3.80
2018-07-04T18:43:23.649Z,4.90
2018-07-04T18:48:43.973Z,4.23
2018-07-04T18:54:04.553Z,5.23
2018-07-04T18:59:24.755Z,5.47
2018-07-04T19:04:45.183Z,5.37
2018-07-04T19:10:05.684Z,4.53
2018-07-04T19:15:25.864Z,4.43
2018-07-04T19:20:46.224Z,4.17
2018-07-04T19:26:06.696Z,5.57
2018-07-04T19:31:27.023Z,4.77
2018-07-04T19:36:47.321Z,5.27
2018-07-04T19:42:07.774Z,5.83
2018-07-04T19:47:28.290Z,4.70
2018-07-04T19:52:48.987Z,5.17
2018-07-04T19:58:09.162Z,5.37
2018-07-04T20:03:29.494Z,4.97
2018-07-04T20:08:49.870Z,5.00
2018-07-04T20:14:10.117Z,5.43
2018-07-04T20:19:30.642Z,5.50
2018-07-04T20:24:50.751Z,4.47
2018-07-04T20:30:11.273Z,5.30
2018-07-04T20:35:31.499Z,5.87
2018-07-04T20:40:51.735Z,6.57
2018-07-04T20:46:11.979Z,5.17
2018-07-04T20:51:32.264Z,6.10
2018-07-04T20:56:52.714Z,4.13
2018-07-04T21:02:13.229Z,4.20
2018-07-04T21:07:33.822Z,4.40
2018-07-04T21:12:54.141Z,4.77
2018-07-04T21:18:14.382Z,4.03
2018-07-04T21:23:34.856Z,4.70
2018-07-04T21:28:55.238Z,4.13
2018-07-04T21:34:15.607Z,3.80
2018-07-04T21:39:36.208Z,4.60
2018-07-04T21:44:56.415Z,4.20
2018-07-04T21:50:16.689Z,4.77
2018-07-04T21:55:37.285Z,3.93
2018-07-04T22:00:57.704Z,4.70
2018-07-04T22:06:17.881Z,4.50
2018-07-04T22:11:38.017Z,5.23
2018-07-04T22:16:58.426Z,4.73
2018-07-04T22:22:18.777Z,5.03
2018-07-04T22:27:39.182Z,4.67
2018-07-04T22:32:59.595Z,5.07
2018-07-04T22:38:20.213Z,6.10
2018-07-04T22:43:40.543Z,4.67
2018-07-04T22:48:55.194Z,5.30
2018-07-04T22:54:15.595Z,5.37
2018-07-04T22:59:35.888Z,5.07
2018-07-04T23:04:56.334Z,5.30
2018-07-04T23:10:16.860Z,5.23
2018-07-04T23:15:37.012Z,5.10
2018-07-04T23:20:57.656Z,5.40
2018-07-04T23:26:17.962Z,4.70
2018-07-04T23:31:38.260Z,5.23
2018-07-04T23:36:58.628Z,5.73
2018-07-04T23:42:19.291Z,5.90
2018-07-04T23:47:39.545Z,5.50
2018-07-04T23:53:00.013Z,4.40
2018-07-04T23:58:20.641Z,4.70
